Flight Track Log - Related Links

Times and Time Zones

All times are in EDT time to prevent confusion due to time zone crossing. See the CTL17 flight status page for this flight to view local times or setup timezone preferences in your user account.

Time Position Orientation Groundspeed Altitude Reporting Facility
EDT Latitude Longitude Course Direction KTS MPH feet Rate Location/Type
Mon 04:47:00 PM 43.3619 -84.0057 160° South  Level Estimated
Mon 04:48:00 PM 43.3366 -83.9838 148° Southeast  Level FlightAware
Mon 04:49:00 PM 43.3080 -83.9718 160° South  Level Estimated
Mon 04:50:00 PM 43.2807 -83.9553 156° South  Level FlightAware
Mon 04:51:00 PM 43.2533 -83.9388 156° South  Level FlightAware
Mon 04:52:00 PM 43.2247 -83.9271 163° South  Level Estimated
Mon 04:53:00 PM 43.1965 -83.9134 161° South  Level FlightAware
Mon 04:54:00 PM 43.1683 -83.8997 161° South  Level FlightAware
Mon 04:55:00 PM 43.1401 -83.8861 161° South  Level FlightAware
Mon 04:56:00 PM 43.1115 -83.8746 160° South  Level Estimated
Mon 04:56:14 PM 42.8831 -83.7708 160° South 173 199 5,000  Level Cleveland Center
Mon 04:57:00 PM 43.0835 -83.8603 160° South  Level FlightAware
Mon 04:57:20 PM 42.8339 -83.7403 155° Southeast 169 194 5,000  Level Cleveland Center
Mon 04:58:00 PM 43.0555 -83.8461 160° South  Level FlightAware
Mon 04:59:00 PM 43.0275 -83.8318 160° South  Level FlightAware
Mon 04:59:16 PM 42.7428 -83.7100 166° South 173 199 5,000  Level Cleveland Center
Mon 05:00:00 PM 42.9995 -83.8176 160° South  Level FlightAware
Mon 05:00:23 PM 42.6933 -83.6936 166° South 173 199 5,000  Level Cleveland Center
Mon 05:01:00 PM 42.9715 -83.8033 160° South  Level FlightAware
Mon 05:02:25 PM 42.5981 -83.6661 168° South 171 197 5,100  Level Cleveland Center
Mon 05:04:21 PM 42.5092 -83.6394 168° South 170 196 5,100 -270 Level Cleveland Center
Mon 05:06:00 PM 42.4670 -83.5946 166° South  Level FlightAware
Mon 05:06:29 PM 42.4036 -83.6175 166° South 189 217 4,000  Level Cleveland Center
Mon 05:08:30 PM 42.3036 -83.6069 176° South 179 206 2,400 -626 Descending Cleveland Center
Mon 05:09:31 PM 42.2603 -83.5964 170° South 160 184 2,100 -397 Descending Cleveland Center
Mon 05:10:31 PM 42.2275 -83.5697 149° Southeast 111 128 1,600 -500 Descending Cleveland Center
Mon 05:12:00 PM 42.2393 -83.5310 160° South  Level Estimated
Mon 05:19:00 PM 42.2393 -83.5310 160° South  Level Estimated
Mon 05:20:00 PM 42.2393 -83.5310 160° South  Level Estimated
Mon 05:21:00 PM 42.2393 -83.5310 160° South  Level Estimated

Login

Don't have an account? Register now (free) for customized features, flight alerts, and more!